Time;durP1;ratioP1;P1;durP2;ratioP2;P2;SDS_P1;SDS_P2;PMS_P1;PMS_P2;Temp;Humidity;BMP_temperature;BMP_pressure;BME280_temperature;BME280_humidity;BME280_pressure;Samples;Min_cycle;Max_cycle;Signal;HPM_P1;HPM_P2
2023/12/15 00:01:35;;;;;;;13.20;12.60;;;6.80;99.90;;;;;;5024939;28;20502;-79
2023/12/15 00:04:04;;;;;;;14.07;13.37;;;6.80;99.90;;;;;;5026217;28;20467;-78
2023/12/15 00:06:33;;;;;;;13.60;13.03;;;6.80;99.90;;;;;;5026697;28;20448;-80
2023/12/15 00:09:02;;;;;;;12.33;11.83;;;6.80;99.90;;;;;;5025767;28;20519;-80
2023/12/15 00:11:30;;;;;;;13.00;12.50;;;6.80;99.90;;;;;;5029020;28;20468;-79
2023/12/15 00:13:58;;;;;;;12.30;11.90;;;6.80;99.90;;;;;;5028658;28;21184;-78
2023/12/15 00:16:26;;;;;;;12.57;12.07;;;6.80;99.90;;;;;;5023433;28;20915;-78
2023/12/15 00:18:54;;;;;;;13.83;13.23;;;6.70;99.90;;;;;;5024981;28;20466;-79
2023/12/15 00:21:24;;;;;;;14.40;13.70;;;6.70;1.00;;;;;;5029405;28;20910;-78
2023/12/15 00:23:55;;;;;;;12.70;12.30;;;6.70;99.90;;;;;;5030470;28;20857;-78
2023/12/15 00:26:23;;;;;;;12.83;12.40;;;6.80;99.90;;;;;;5027175;28;20458;-78
2023/12/15 00:28:51;;;;;;;12.97;12.40;;;6.70;1.00;;;;;;5029551;28;20917;-78
2023/12/15 00:31:19;;;;;;;13.40;12.80;;;6.70;99.90;;;;;;5016844;28;20468;-79
2023/12/15 00:33:47;;;;;;;12.60;12.10;;;6.70;99.90;;;;;;5026446;28;20453;-79
2023/12/15 00:36:16;;;;;;;12.57;12.10;;;6.70;99.90;;;;;;5029200;28;20455;-79
2023/12/15 00:38:44;;;;;;;12.20;11.80;;;6.80;99.90;;;;;;5029815;28;20460;-78
2023/12/15 00:41:14;;;;;;;12.10;11.70;;;6.80;99.90;;;;;;5029725;28;20485;-80
2023/12/15 00:43:42;;;;;;;12.27;11.80;;;6.70;99.90;;;;;;5027560;28;20987;-79
2023/12/15 00:46:10;;;;;;;12.17;11.77;;;6.80;99.90;;;;;;5027629;28;20456;-78
2023/12/15 00:48:38;;;;;;;12.67;12.17;;;6.80;1.00;;;;;;5027525;28;20449;-79
2023/12/15 00:51:07;;;;;;;13.00;12.50;;;6.80;1.00;;;;;;5030101;28;20464;-79
2023/12/15 00:53:35;;;;;;;12.60;12.10;;;6.70;1.00;;;;;;5032001;28;20539;-79
2023/12/15 00:56:04;;;;;;;12.33;11.93;;;6.80;1.00;;;;;;5029803;28;20799;-79
2023/12/15 00:58:33;;;;;;;12.63;12.13;;;6.70;1.00;;;;;;5030029;28;20812;-79
2023/12/15 01:01:02;;;;;;;12.43;12.03;;;6.70;1.00;;;;;;5027470;28;20480;-79
2023/12/15 01:03:31;;;;;;;12.40;12.00;;;6.70;1.00;;;;;;5028717;28;20452;-79
2023/12/15 01:06:00;;;;;;;11.40;11.10;;;6.70;99.90;;;;;;5025078;28;20552;-78
2023/12/15 01:08:28;;;;;;;12.10;11.70;;;6.70;99.90;;;;;;5026443;28;20519;-79
2023/12/15 01:10:56;;;;;;;11.60;11.30;;;6.70;99.90;;;;;;5026533;28;20475;-79
2023/12/15 01:13:25;;;;;;;12.10;11.60;;;6.70;99.90;;;;;;5036103;28;20554;-79
2023/12/15 01:15:54;;;;;;;11.90;11.50;;;6.60;25.00;;;;;;5029777;28;20449;-79
2023/12/15 01:18:22;;;;;;;12.17;11.77;;;6.60;81.10;;;;;;5029489;28;20512;-78
2023/12/15 01:20:51;;;;;;;12.47;11.90;;;6.50;53.30;;;;;;5029552;28;20481;-79
2023/12/15 01:23:19;;;;;;;12.80;12.30;;;6.50;99.90;;;;;;5032390;28;20452;-78
2023/12/15 01:25:47;;;;;;;13.00;12.40;;;6.50;99.90;;;;;;5031342;28;20537;-78
2023/12/15 01:28:15;;;;;;;12.43;11.83;;;6.50;99.90;;;;;;5030770;28;20471;-78
2023/12/15 01:30:43;;;;;;;13.70;13.10;;;6.50;70.40;;;;;;5031726;28;20471;-79
2023/12/15 01:33:13;;;;;;;12.67;12.17;;;6.40;99.90;;;;;;5031483;28;20444;-79
2023/12/15 01:35:41;;;;;;;13.20;12.70;;;6.50;99.90;;;;;;5030882;28;20957;-79
2023/12/15 01:38:09;;;;;;;13.20;12.50;;;6.50;99.90;;;;;;5029872;28;20456;-78
2023/12/15 01:40:37;;;;;;;12.80;12.23;;;6.50;99.90;;;;;;5031189;28;21062;-79
2023/12/15 01:43:05;;;;;;;12.40;12.00;;;6.50;99.90;;;;;;5031723;28;20860;-79
2023/12/15 01:45:34;;;;;;;12.87;12.27;;;6.40;99.90;;;;;;5027229;28;20464;-79
2023/12/15 01:48:02;;;;;;;12.17;11.77;;;6.40;99.90;;;;;;5031445;28;20456;-79
2023/12/15 01:50:32;;;;;;;12.57;12.07;;;6.40;99.90;;;;;;5029476;28;20950;-79
2023/12/15 01:53:00;;;;;;;12.80;12.10;;;6.50;99.90;;;;;;5030433;28;20538;-79
2023/12/15 01:55:28;;;;;;;12.40;11.80;;;6.50;99.90;;;;;;5032009;28;20456;-78
2023/12/15 01:57:57;;;;;;;12.40;11.90;;;6.50;99.90;;;;;;5024204;28;20462;-79
2023/12/15 02:00:25;;;;;;;12.27;11.77;;;6.50;99.90;;;;;;5021914;28;20587;-79
2023/12/15 02:02:53;;;;;;;12.30;11.80;;;6.40;99.90;;;;;;5024034;28;20448;-80
2023/12/15 02:05:21;;;;;;;12.17;11.77;;;6.40;99.90;;;;;;5024407;28;20588;-79
2023/12/15 02:07:51;;;;;;;11.70;11.30;;;6.40;99.90;;;;;;5031034;28;21367;-79
2023/12/15 02:10:19;;;;;;;13.03;12.33;;;6.40;99.90;;;;;;5028312;28;20461;-79
2023/12/15 02:12:47;;;;;;;12.57;12.07;;;6.50;99.90;;;;;;5027844;28;20457;-79
2023/12/15 02:15:16;;;;;;;12.60;12.00;;;6.40;99.90;;;;;;5025603;28;20459;-79
2023/12/15 02:17:44;;;;;;;12.23;11.73;;;6.40;99.90;;;;;;5029547;28;20461;-79
2023/12/15 02:20:12;;;;;;;12.10;11.60;;;6.50;99.90;;;;;;5031393;28;20461;-79
2023/12/15 02:22:42;;;;;;;12.70;12.07;;;6.50;99.90;;;;;;5029098;28;21135;-79
2023/12/15 02:25:10;;;;;;;13.30;12.80;;;6.50;99.90;;;;;;5031041;28;20486;-79
2023/12/15 02:27:39;;;;;;;12.17;11.67;;;6.40;99.90;;;;;;5030455;28;20583;-78
2023/12/15 02:30:08;;;;;;;12.13;11.63;;;6.40;99.90;;;;;;5026716;28;20445;-79
2023/12/15 02:32:36;;;;;;;11.73;11.23;;;6.40;99.90;;;;;;5027703;28;20496;-79
2023/12/15 02:35:05;;;;;;;12.37;11.67;;;6.40;99.90;;;;;;5030409;28;20459;-79
2023/12/15 02:37:34;;;;;;;12.50;11.90;;;6.50;99.90;;;;;;5031308;28;20511;-78
2023/12/15 02:40:04;;;;;;;12.43;11.93;;;6.50;99.90;;;;;;5032224;28;20984;-79
2023/12/15 02:42:32;;;;;;;12.20;11.70;;;6.40;99.90;;;;;;5028435;28;20487;-77
2023/12/15 02:45:01;;;;;;;11.90;11.40;;;6.50;99.90;;;;;;5027678;28;20458;-78
2023/12/15 02:47:30;;;;;;;12.50;11.90;;;6.50;99.90;;;;;;5021749;28;20453;-79
2023/12/15 02:49:58;;;;;;;12.10;11.57;;;6.50;99.90;;;;;;5027421;28;20457;-78
2023/12/15 02:52:26;;;;;;;11.60;11.20;;;6.50;99.90;;;;;;5028944;28;20500;-78
2023/12/15 02:54:55;;;;;;;12.17;11.60;;;6.60;99.90;;;;;;5032119;28;20484;-79
2023/12/15 02:57:24;;;;;;;12.07;11.50;;;6.50;99.90;;;;;;5030403;28;21377;-78
2023/12/15 02:59:52;;;;;;;12.93;12.27;;;6.50;99.90;;;;;;5028016;28;20467;-79
2023/12/15 03:02:21;;;;;;;12.03;11.53;;;6.50;99.90;;;;;;5029468;28;20476;-79
2023/12/15 03:04:49;;;;;;;12.47;11.97;;;6.50;99.90;;;;;;5029260;28;20444;-79
2023/12/15 03:07:16;;;;;;;12.63;12.03;;;6.60;99.90;;;;;;5024474;28;20445;-79
2023/12/15 03:09:44;;;;;;;12.60;12.00;;;6.60;99.90;;;;;;5028811;28;20453;-80
2023/12/15 03:12:12;;;;;;;12.63;12.10;;;6.50;99.90;;;;;;5030845;28;20473;-79
2023/12/15 03:14:42;;;;;;;12.50;12.10;;;6.60;95.70;;;;;;5030702;28;20464;-78
2023/12/15 03:17:12;;;;;;;13.30;12.50;;;6.60;99.90;;;;;;5032425;28;20464;-78
2023/12/15 03:19:40;;;;;;;12.77;12.17;;;6.60;99.90;;;;;;5032606;28;20458;-78
2023/12/15 03:22:08;;;;;;;13.43;12.83;;;6.50;99.90;;;;;;5029069;28;20485;-78
2023/12/15 03:24:37;;;;;;;13.40;12.63;;;6.60;99.90;;;;;;5024528;28;20467;-79
2023/12/15 03:27:05;;;;;;;12.53;12.03;;;6.60;99.90;;;;;;5029942;28;20455;-78
2023/12/15 03:29:33;;;;;;;13.07;12.43;;;6.60;99.90;;;;;;5029649;28;20460;-79
2023/12/15 03:32:03;;;;;;;12.70;12.10;;;6.50;99.90;;;;;;5027428;28;20471;-79
2023/12/15 03:34:32;;;;;;;12.37;11.87;;;6.50;99.90;;;;;;5031849;28;20440;-79
2023/12/15 03:37:00;;;;;;;13.80;13.10;;;6.50;99.90;;;;;;5027704;28;20471;-79
2023/12/15 03:39:28;;;;;;;13.53;12.93;;;6.50;99.90;;;;;;5028858;28;20443;-80
2023/12/15 03:41:56;;;;;;;13.30;12.70;;;6.50;14.20;;;;;;5031318;28;22473;-79
2023/12/15 03:44:24;;;;;;;13.20;12.50;;;6.60;55.00;;;;;;5030435;28;20560;-79
2023/12/15 03:46:53;;;;;;;13.40;12.77;;;6.60;99.50;;;;;;5021877;28;20474;-79
2023/12/15 03:49:22;;;;;;;14.00;13.20;;;6.60;91.20;;;;;;5026503;28;20464;-78
2023/12/15 03:51:50;;;;;;;13.30;12.70;;;6.60;1.00;;;;;;5032316;28;20480;-78
2023/12/15 03:54:18;;;;;;;13.23;12.43;;;6.50;1.00;;;;;;5028148;28;20475;-78
2023/12/15 03:56:47;;;;;;;13.10;12.60;;;6.60;1.00;;;;;;5029298;28;20526;-78
2023/12/15 03:59:15;;;;;;;13.43;12.70;;;6.60;1.00;;;;;;5030886;28;20468;-79
2023/12/15 04:01:43;;;;;;;14.40;13.73;;;6.60;1.00;;;;;;5020123;28;20484;-79
2023/12/15 04:04:11;;;;;;;13.97;13.30;;;6.50;1.00;;;;;;5031465;28;20984;-78
2023/12/15 04:06:41;;;;;;;14.60;13.80;;;6.50;1.00;;;;;;5031604;28;20470;-78
2023/12/15 04:09:09;;;;;;;14.03;13.03;;;6.50;1.00;;;;;;5027912;28;20447;-79
2023/12/15 04:11:38;;;;;;;14.43;13.60;;;6.50;1.00;;;;;;5028104;28;20464;-79
2023/12/15 04:14:07;;;;;;;14.90;14.10;;;6.50;1.00;;;;;;5026665;28;20466;-78
2023/12/15 04:16:35;;;;;;;14.57;13.80;;;6.60;1.00;;;;;;5029551;28;20474;-79
2023/12/15 04:19:03;;;;;;;13.87;13.23;;;6.60;1.00;;;;;;5026678;28;20440;-79
2023/12/15 04:21:32;;;;;;;13.63;13.07;;;6.50;1.00;;;;;;5028316;28;20480;-78
2023/12/15 04:24:04;;;;;;;14.20;13.60;;;6.50;4.10;;;;;;5029356;28;20523;-78
2023/12/15 04:26:32;;;;;;;14.13;13.50;;;6.50;94.90;;;;;;5030075;28;20459;-78
2023/12/15 04:29:00;;;;;;;13.87;13.37;;;6.60;1.00;;;;;;5022315;28;20461;-79
2023/12/15 04:31:29;;;;;;;14.33;13.63;;;6.60;1.00;;;;;;5024693;28;20491;-79
2023/12/15 04:33:57;;;;;;;15.80;14.97;;;6.60;1.00;;;;;;5029107;28;20980;-79
2023/12/15 04:36:26;;;;;;;13.93;13.20;;;6.60;1.00;;;;;;5026706;28;20467;-79
2023/12/15 04:38:54;;;;;;;14.17;13.50;;;6.50;1.00;;;;;;5027092;28;20461;-79
2023/12/15 04:41:25;;;;;;;15.37;14.67;;;6.50;1.00;;;;;;5031916;28;20511;-79
2023/12/15 04:43:54;;;;;;;13.87;13.20;;;6.50;1.00;;;;;;5028088;28;20572;-79
2023/12/15 04:46:24;;;;;;;14.00;13.40;;;6.50;1.00;;;;;;5019280;28;20458;-79
2023/12/15 04:48:52;;;;;;;14.43;13.70;;;6.50;1.00;;;;;;5033699;28;20547;-78
2023/12/15 04:51:21;;;;;;;14.17;13.57;;;6.40;1.00;;;;;;5033862;28;20902;-78
2023/12/15 04:53:50;;;;;;;13.60;12.90;;;6.40;1.00;;;;;;5033191;28;20536;-79
2023/12/15 04:56:19;;;;;;;13.20;12.50;;;6.50;1.00;;;;;;5031990;28;21035;-79
2023/12/15 04:58:48;;;;;;;13.30;12.70;;;6.50;1.00;;;;;;5027582;28;20491;-79
2023/12/15 05:01:16;;;;;;;14.20;13.40;;;6.40;1.00;;;;;;5028266;28;20467;-79
2023/12/15 05:03:45;;;;;;;14.10;13.40;;;6.40;1.00;;;;;;5022441;28;20622;-79
2023/12/15 05:06:18;;;;;;;13.57;12.93;;;6.40;1.00;;;;;;5031960;28;20929;-78
2023/12/15 05:08:47;;;;;;;13.37;12.77;;;6.40;1.00;;;;;;5029925;28;20453;-79
2023/12/15 05:11:16;;;;;;;14.87;14.07;;;6.50;5.60;;;;;;5030712;28;21190;-79
2023/12/15 05:13:45;;;;;;;14.17;13.57;;;6.40;1.00;;;;;;5022818;28;20459;-80
2023/12/15 05:16:14;;;;;;;13.87;13.27;;;6.50;1.00;;;;;;5030465;28;20994;-79
2023/12/15 05:18:42;;;;;;;14.27;13.53;;;6.40;99.90;;;;;;5030863;28;20996;-82
2023/12/15 05:21:11;;;;;;;15.00;14.23;;;6.50;99.90;;;;;;5032650;28;20484;-82
2023/12/15 05:23:40;;;;;;;14.30;13.43;;;6.40;70.70;;;;;;5035952;28;20511;-82
2023/12/15 05:26:08;;;;;;;14.07;13.50;;;6.50;89.20;;;;;;5030321;28;20457;-79
2023/12/15 05:28:36;;;;;;;14.20;13.40;;;6.50;99.80;;;;;;5028733;28;20456;-79
2023/12/15 05:31:05;;;;;;;13.73;13.03;;;6.40;99.90;;;;;;5026809;28;20480;-79
2023/12/15 05:33:35;;;;;;;13.50;12.90;;;6.40;99.90;;;;;;5026446;28;20457;-78
2023/12/15 05:36:04;;;;;;;13.10;12.60;;;6.40;99.90;;;;;;5029411;28;20440;-78
2023/12/15 05:38:32;;;;;;;13.23;12.63;;;6.40;99.90;;;;;;5031117;28;20452;-77
2023/12/15 05:41:02;;;;;;;13.50;12.80;;;6.40;99.90;;;;;;5024274;28;20555;-77
2023/12/15 05:43:30;;;;;;;12.73;12.13;;;6.50;28.60;;;;;;5028840;28;20464;-77
2023/12/15 05:45:58;;;;;;;13.20;12.60;;;6.50;99.90;;;;;;5028084;28;20539;-78
2023/12/15 05:48:27;;;;;;;13.63;13.13;;;6.50;1.00;;;;;;5029505;28;20452;-78
2023/12/15 05:50:57;;;;;;;13.43;12.83;;;6.50;1.00;;;;;;5031842;28;20477;-77
2023/12/15 05:53:25;;;;;;;13.30;12.70;;;6.60;1.00;;;;;;5031999;28;20448;-77
2023/12/15 05:55:53;;;;;;;14.17;13.57;;;6.60;1.00;;;;;;5022196;28;20492;-78
2023/12/15 05:58:21;;;;;;;13.93;13.30;;;6.50;1.00;;;;;;5023659;28;20918;-77
2023/12/15 06:00:50;;;;;;;14.63;13.93;;;6.50;99.90;;;;;;5027360;28;20488;-79
2023/12/15 06:03:18;;;;;;;13.47;12.87;;;6.50;1.00;;;;;;5026994;28;21040;-78
2023/12/15 06:05:46;;;;;;;13.70;13.10;;;6.50;1.00;;;;;;5029036;28;20453;-79
2023/12/15 06:08:16;;;;;;;13.80;13.07;;;6.50;1.00;;;;;;5030358;28;20464;-77
2023/12/15 06:10:44;;;;;;;13.13;12.50;;;6.40;1.00;;;;;;5029485;28;21090;-78
2023/12/15 06:13:12;;;;;;;14.00;13.30;;;6.40;1.00;;;;;;5025246;28;20490;-78
2023/12/15 06:15:40;;;;;;;13.20;12.60;;;6.50;1.00;;;;;;5030229;28;20448;-79
2023/12/15 06:18:08;;;;;;;14.03;13.43;;;6.50;1.00;;;;;;5022736;28;20472;-78
2023/12/15 06:20:38;;;;;;;14.70;13.90;;;6.40;1.00;;;;;;5028421;28;21163;-78
2023/12/15 06:23:06;;;;;;;14.37;13.57;;;6.40;1.00;;;;;;5030968;28;20495;-78
2023/12/15 06:25:36;;;;;;;14.10;13.50;;;6.50;4.60;;;;;;5030508;28;20494;-77
2023/12/15 06:28:04;;;;;;;13.50;12.80;;;6.50;1.00;;;;;;5024579;28;21024;-77
2023/12/15 06:30:32;;;;;;;14.20;13.60;;;6.60;1.00;;;;;;5027307;28;20457;-78
2023/12/15 06:33:01;;;;;;;13.73;13.13;;;6.60;1.00;;;;;;5023145;28;20449;-77
2023/12/15 06:35:29;;;;;;;14.33;13.43;;;6.50;1.00;;;;;;5026569;28;20461;-77
2023/12/15 06:37:57;;;;;;;13.40;12.80;;;6.50;99.90;;;;;;5029317;28;20985;-78
2023/12/15 06:40:25;;;;;;;13.43;12.73;;;6.50;99.90;;;;;;5027866;28;20542;-77
2023/12/15 06:42:55;;;;;;;12.60;12.13;;;6.50;99.90;;;;;;5029227;28;20486;-77
2023/12/15 06:45:23;;;;;;;13.40;12.37;;;6.50;99.90;;;;;;5027854;28;21105;-77
2023/12/15 06:47:51;;;;;;;13.67;12.97;;;6.50;99.90;;;;;;5032763;28;20466;-77
2023/12/15 06:50:20;;;;;;;12.70;12.20;;;6.50;99.90;;;;;;5027912;28;20437;-77
2023/12/15 06:52:51;;;;;;;13.17;12.67;;;6.50;99.90;;;;;;5033506;28;20543;-77
2023/12/15 06:55:19;;;;;;;13.30;12.77;;;6.60;1.00;;;;;;5033914;28;20439;-77
2023/12/15 06:57:47;;;;;;;14.43;13.63;;;6.50;99.90;;;;;;5031668;28;20471;-78
2023/12/15 07:00:20;;;;;;;13.50;12.90;;;6.50;99.90;;;;;;5032097;28;20456;-78
2023/12/15 07:02:48;;;;;;;14.57;13.90;;;6.50;1.00;;;;;;5030121;28;20452;-77
2023/12/15 07:05:17;;;;;;;14.47;13.67;;;6.50;1.00;;;;;;5032050;28;20450;-78
2023/12/15 07:07:45;;;;;;;14.60;13.90;;;6.60;1.00;;;;;;5031128;28;20514;-78
2023/12/15 07:10:14;;;;;;;14.60;13.80;;;6.50;1.00;;;;;;5029332;28;20448;-77
2023/12/15 07:12:42;;;;;;;14.37;13.60;;;6.50;1.00;;;;;;5030825;28;20479;-77
2023/12/15 07:15:10;;;;;;;15.00;14.30;;;6.50;1.00;;;;;;5028067;28;20539;-78
2023/12/15 07:17:40;;;;;;;15.20;14.40;;;6.50;1.00;;;;;;5031368;28;20981;-78
2023/12/15 07:20:09;;;;;;;15.20;14.30;;;6.50;1.00;;;;;;5012011;28;20492;-77
2023/12/15 07:22:37;;;;;;;15.30;14.40;;;6.50;1.00;;;;;;5026065;28;20550;-78
2023/12/15 07:25:06;;;;;;;15.07;14.20;;;6.60;1.00;;;;;;5030003;28;20460;-78
2023/12/15 07:27:35;;;;;;;14.33;13.53;;;6.50;1.00;;;;;;5033112;28;20460;-78
2023/12/15 07:30:04;;;;;;;15.30;14.47;;;6.60;1.00;;;;;;5031661;28;20452;-78
2023/12/15 07:32:32;;;;;;;14.43;13.73;;;6.50;1.00;;;;;;5032521;28;20472;-77
2023/12/15 07:35:03;;;;;;;15.00;14.20;;;6.40;1.00;;;;;;5028382;28;20872;-77
2023/12/15 07:37:40;;;;;;;15.77;14.77;;;6.50;1.00;;;;;;5030096;28;20491;-78
2023/12/15 07:40:10;;;;;;;15.63;14.73;;;6.50;1.00;;;;;;5025534;28;20453;-78
2023/12/15 07:42:38;;;;;;;14.60;13.90;;;6.50;1.00;;;;;;5027811;28;20484;-78
2023/12/15 07:45:07;;;;;;;14.80;14.00;;;6.40;1.00;;;;;;5030704;28;20524;-78
2023/12/15 07:47:35;;;;;;;14.27;13.67;;;6.40;1.00;;;;;;5031264;28;20448;-77
2023/12/15 07:50:07;;;;;;;14.27;13.57;;;6.50;1.00;;;;;;5027003;28;20463;-78
2023/12/15 07:52:35;;;;;;;14.50;13.80;;;6.40;1.00;;;;;;5026542;28;20478;-78
2023/12/15 07:55:04;;;;;;;14.07;13.37;;;6.40;6.10;;;;;;5022107;28;20457;-78
2023/12/15 07:57:33;;;;;;;14.43;13.80;;;6.50;83.10;;;;;;5031598;28;20460;-78
2023/12/15 08:00:02;;;;;;;15.27;14.37;;;6.50;1.00;;;;;;5022407;28;20482;-77
2023/12/15 08:02:30;;;;;;;15.73;14.83;;;6.40;26.70;;;;;;5027552;28;20568;-77
2023/12/15 08:04:59;;;;;;;15.10;14.00;;;6.40;99.40;;;;;;5027873;28;20471;-76
2023/12/15 08:07:28;;;;;;;14.10;13.40;;;6.40;99.90;;;;;;5015689;28;20575;-77
2023/12/15 08:09:56;;;;;;;14.60;13.90;;;6.40;99.90;;;;;;5017504;28;21004;-78
2023/12/15 08:12:25;;;;;;;15.60;14.70;;;6.40;99.90;;;;;;5013390;28;20492;-77
2023/12/15 08:14:53;;;;;;;15.53;14.37;;;6.40;99.90;;;;;;5024521;28;20452;-77
2023/12/15 08:17:21;;;;;;;15.17;14.40;;;6.40;99.90;;;;;;5023579;28;20468;-76
2023/12/15 08:19:49;;;;;;;16.40;15.40;;;6.40;1.00;;;;;;5024022;28;21207;-77
2023/12/15 08:22:18;;;;;;;15.53;14.63;;;6.40;99.90;;;;;;5024052;28;20490;-77
2023/12/15 08:24:47;;;;;;;15.53;14.83;;;6.40;1.00;;;;;;5015943;28;20484;-78
2023/12/15 08:27:16;;;;;;;16.33;15.23;;;6.40;1.00;;;;;;5020009;28;20453;-77
2023/12/15 08:29:44;;;;;;;16.63;15.43;;;6.40;1.00;;;;;;5024803;28;20443;-79
2023/12/15 08:32:13;;;;;;;16.47;15.50;;;6.40;1.00;;;;;;5026090;28;20486;-79
2023/12/15 08:34:42;;;;;;;15.20;14.40;;;6.50;96.70;;;;;;5027796;28;20456;-78
2023/12/15 08:37:10;;;;;;;16.23;15.23;;;6.50;1.00;;;;;;5023858;28;20488;-78
2023/12/15 08:39:38;;;;;;;15.67;14.87;;;6.50;1.00;;;;;;5029136;28;20543;-78
2023/12/15 08:42:08;;;;;;;17.40;16.10;;;6.50;1.00;;;;;;5029105;28;20490;-78
2023/12/15 08:44:36;;;;;;;17.07;16.17;;;6.50;1.00;;;;;;5030240;28;20487;-78
2023/12/15 08:47:05;;;;;;;17.40;16.20;;;6.50;1.00;;;;;;5027375;28;20811;-78
2023/12/15 08:49:33;;;;;;;16.87;15.67;;;6.50;99.90;;;;;;5032400;28;20193;-78
2023/12/15 08:52:01;;;;;;;16.90;15.67;;;6.60;99.90;;;;;;5033181;28;20550;-77
2023/12/15 08:54:29;;;;;;;16.17;15.27;;;6.70;99.90;;;;;;5027308;28;20458;-77
2023/12/15 08:56:58;;;;;;;17.40;16.20;;;6.70;99.90;;;;;;5028210;28;20461;-77
2023/12/15 08:59:27;;;;;;;16.93;15.93;;;6.80;99.90;;;;;;5026480;28;20445;-80
2023/12/15 09:01:56;;;;;;;17.87;16.77;;;6.80;99.90;;;;;;5024120;28;20479;-77
2023/12/15 09:04:24;;;;;;;16.37;15.13;;;6.80;1.00;;;;;;5031645;28;20518;-77
2023/12/15 09:06:52;;;;;;;17.50;16.37;;;6.80;99.90;;;;;;5027863;28;20468;-78
2023/12/15 09:09:23;;;;;;;18.40;17.10;;;6.80;99.90;;;;;;5026341;28;20551;-78
2023/12/15 09:11:52;;;;;;;18.93;17.63;;;6.80;99.90;;;;;;5033125;28;20480;-78
2023/12/15 09:14:23;;;;;;;18.13;16.97;;;6.80;1.00;;;;;;5031399;28;20867;-78
2023/12/15 09:16:54;;;;;;;18.90;17.60;;;6.90;99.90;;;;;;5023841;28;21009;-77
2023/12/15 09:19:22;;;;;;;17.43;16.40;;;6.90;99.90;;;;;;5029027;28;20456;-78
2023/12/15 09:21:50;;;;;;;18.20;17.00;;;6.90;83.60;;;;;;5027666;28;20503;-77
2023/12/15 09:24:18;;;;;;;17.83;16.83;;;6.90;99.90;;;;;;5035089;28;20440;-77
2023/12/15 09:26:47;;;;;;;19.37;17.87;;;6.90;99.90;;;;;;5025110;28;20575;-77
2023/12/15 09:29:18;;;;;;;18.70;17.43;;;7.00;99.90;;;;;;5032780;28;20458;-78
2023/12/15 09:31:47;;;;;;;16.90;15.80;;;7.00;99.90;;;;;;5032700;28;20491;-77
2023/12/15 09:34:17;;;;;;;17.83;16.60;;;7.00;99.90;;;;;;5037041;28;20440;-78
2023/12/15 09:36:45;;;;;;;17.23;16.10;;;7.10;99.90;;;;;;5035001;28;20452;-78
2023/12/15 09:39:13;;;;;;;18.47;16.97;;;7.10;99.90;;;;;;5031279;28;20552;-77
2023/12/15 09:41:41;;;;;;;18.17;17.00;;;7.00;99.90;;;;;;5035968;28;20482;-78
2023/12/15 09:44:10;;;;;;;18.20;17.00;;;7.00;99.90;;;;;;5036727;28;20472;-78
2023/12/15 09:46:40;;;;;;;17.20;16.00;;;7.00;99.90;;;;;;5033026;28;20471;-78
2023/12/15 09:49:09;;;;;;;16.83;15.83;;;7.10;99.90;;;;;;5036299;28;20753;-78
2023/12/15 09:51:41;;;;;;;17.53;16.27;;;7.10;99.90;;;;;;5037022;28;20463;-78
2023/12/15 09:54:09;;;;;;;17.57;16.37;;;7.00;99.90;;;;;;5035015;28;20613;-78
2023/12/15 09:56:38;;;;;;;17.73;16.67;;;7.00;99.90;;;;;;5034751;28;20460;-78
2023/12/15 09:59:10;;;;;;;17.83;16.83;;;7.10;1.00;;;;;;5033523;28;20543;-79
2023/12/15 10:01:38;;;;;;;17.23;16.30;;;7.10;1.00;;;;;;5034070;28;20483;-77
2023/12/15 10:04:07;;;;;;;17.53;16.57;;;7.20;99.90;;;;;;5035815;28;20476;-78
2023/12/15 10:06:36;;;;;;;17.77;16.57;;;7.20;1.00;;;;;;5032151;28;20466;-78
2023/12/15 10:09:11;;;;;;;18.67;17.53;;;7.20;1.00;;;;;;5035175;28;20444;-78
2023/12/15 10:11:40;;;;;;;18.20;17.20;;;7.30;99.90;;;;;;5034541;28;21057;-78
2023/12/15 10:14:09;;;;;;;19.37;18.07;;;7.50;93.00;;;;;;5033884;28;20972;-77
2023/12/15 10:16:38;;;;;;;17.27;16.37;;;7.60;9.90;;;;;;5027648;28;20456;-78
2023/12/15 10:19:07;;;;;;;16.30;15.50;;;7.60;1.00;;;;;;5031905;28;21820;-78
2023/12/15 10:21:36;;;;;;;17.50;16.50;;;7.70;1.00;;;;;;5033597;28;20482;-78
2023/12/15 10:24:20;;;;;;;16.53;15.63;;;7.70;99.90;;;;;;5036506;28;20452;-78
2023/12/15 10:26:48;;;;;;;16.53;15.63;;;7.60;99.90;;;;;;5032978;28;20472;-78
2023/12/15 10:29:19;;;;;;;17.00;16.00;;;7.60;99.90;;;;;;5031858;28;20459;-78
2023/12/15 10:31:49;;;;;;;17.20;16.10;;;7.50;1.00;;;;;;5016477;28;20506;-78
2023/12/15 10:34:18;;;;;;;17.57;16.57;;;7.50;1.00;;;;;;5033322;28;20453;-78
2023/12/15 10:36:47;;;;;;;16.70;15.80;;;7.50;96.50;;;;;;5032266;28;20445;-78
2023/12/15 10:39:17;;;;;;;17.20;16.10;;;7.50;1.00;;;;;;5031973;28;20436;-78
2023/12/15 10:41:46;;;;;;;16.53;15.63;;;7.50;1.00;;;;;;5032100;28;20472;-78
2023/12/15 10:44:15;;;;;;;16.97;16.00;;;7.50;1.00;;;;;;5034646;28;20453;-78
2023/12/15 10:46:47;;;;;;;16.73;15.83;;;7.60;99.90;;;;;;5033419;28;20547;-78
2023/12/15 10:49:16;;;;;;;17.93;16.73;;;7.60;22.00;;;;;;5032670;28;20467;-78
2023/12/15 10:51:44;;;;;;;18.10;17.10;;;7.60;99.90;;;;;;5035631;28;20473;-77
2023/12/15 10:54:13;;;;;;;17.50;16.50;;;7.60;1.00;;;;;;5034399;28;21008;-79
2023/12/15 10:56:45;;;;;;;17.00;16.07;;;7.70;1.00;;;;;;5029070;28;20463;-77
2023/12/15 10:59:13;;;;;;;16.60;15.70;;;7.60;1.00;;;;;;5031480;28;20470;-78
2023/12/15 11:01:43;;;;;;;17.77;16.57;;;7.60;1.00;;;;;;5031443;28;20480;-77
2023/12/15 11:04:21;;;;;;;17.73;16.70;;;7.60;1.00;;;;;;5034167;28;20461;-78
2023/12/15 11:06:50;;;;;;;16.30;15.40;;;7.60;1.00;;;;;;5015792;28;20572;-78
2023/12/15 11:09:30;;;;;;;16.70;15.80;;;7.60;99.90;;;;;;5033877;28;20501;-78
2023/12/15 11:12:31;;;;;;;17.37;16.30;;;7.60;99.90;;;;;;5032201;28;20487;-77
2023/12/15 11:15:02;;;;;;;17.63;16.63;;;7.60;99.90;;;;;;5028787;28;21361;-77
2023/12/15 11:17:31;;;;;;;16.63;15.77;;;7.70;99.90;;;;;;5031266;28;20969;-78
2023/12/15 11:20:06;;;;;;;17.13;16.10;;;7.70;99.90;;;;;;5033142;28;20458;-78
2023/12/15 11:22:48;;;;;;;16.23;15.33;;;7.80;99.90;;;;;;5031431;28;20475;-77
2023/12/15 11:25:20;;;;;;;17.40;16.30;;;7.90;19.20;;;;;;5034718;28;20907;-78
2023/12/15 11:28:08;;;;;;;17.03;16.23;;;7.90;1.00;;;;;;5028896;28;20469;-77
2023/12/15 11:30:39;;;;;;;15.80;15.00;;;8.10;1.00;;;;;;5031818;28;20502;-78
2023/12/15 11:33:41;;;;;;;16.90;16.10;;;8.30;1.00;;;;;;5032699;28;20531;-77
2023/12/15 11:36:13;;;;;;;17.47;16.50;;;8.40;1.00;;;;;;5030498;28;20312;-78
2023/12/15 11:38:43;;;;;;;17.03;15.93;;;8.50;99.90;;;;;;5032250;28;20461;-77
2023/12/15 11:41:11;;;;;;;15.27;14.57;;;8.50;99.90;;;;;;5030015;28;20469;-77
2023/12/15 11:43:43;;;;;;;16.17;15.37;;;8.60;99.90;;;;;;5033196;28;20486;-77
2023/12/15 11:46:12;;;;;;;17.97;16.63;;;8.50;99.90;;;;;;5031159;28;20467;-80
2023/12/15 11:48:43;;;;;;;16.63;15.73;;;8.50;99.90;;;;;;5030946;28;20452;-80
2023/12/15 11:51:11;;;;;;;16.60;15.80;;;8.40;99.90;;;;;;5031288;28;20477;-81
2023/12/15 11:53:42;;;;;;;17.93;16.83;;;8.40;99.90;;;;;;5030332;28;20448;-80
2023/12/15 11:56:11;;;;;;;16.83;16.03;;;8.50;99.90;;;;;;5032755;28;20440;-80
2023/12/15 11:58:42;;;;;;;16.27;15.43;;;8.50;99.90;;;;;;5031963;28;20446;-80
2023/12/15 12:01:10;;;;;;;16.60;15.80;;;8.50;99.90;;;;;;5033956;28;20481;-79
2023/12/15 12:03:39;;;;;;;16.70;16.00;;;8.70;99.90;;;;;;5031841;28;20457;-80
2023/12/15 12:06:08;;;;;;;17.07;16.20;;;8.80;99.90;;;;;;5027988;28;20481;-80
2023/12/15 12:08:37;;;;;;;16.63;15.73;;;9.00;99.90;;;;;;5032249;28;20759;-80
2023/12/15 12:11:06;;;;;;;16.40;15.70;;;9.20;99.90;;;;;;5034594;28;20464;-81
2023/12/15 12:13:39;;;;;;;17.20;16.43;;;9.30;99.90;;;;;;5035447;28;20467;-81
2023/12/15 12:16:10;;;;;;;16.23;15.53;;;9.50;5.50;;;;;;5032442;28;20441;-80
2023/12/15 12:18:39;;;;;;;16.87;16.07;;;9.50;1.00;;;;;;5033937;28;20525;-79
2023/12/15 12:21:08;;;;;;;17.30;16.40;;;9.40;1.00;;;;;;5031272;28;20599;-80
2023/12/15 12:23:38;;;;;;;16.37;15.73;;;9.30;1.00;;;;;;5029369;28;20530;-76
2023/12/15 12:26:13;;;;;;;16.93;16.23;;;9.20;1.00;;;;;;5025780;28;20469;-76
2023/12/15 12:28:47;;;;;;;15.87;15.17;;;9.20;1.00;;;;;;5020931;28;20445;-76
2023/12/15 12:31:16;;;;;;;15.63;14.83;;;9.10;1.00;;;;;;5026759;28;20479;-76
2023/12/15 12:33:45;;;;;;;14.63;14.03;;;9.00;1.00;;;;;;5030373;28;20455;-76
2023/12/15 12:36:15;;;;;;;15.87;14.67;;;8.90;1.00;;;;;;5027197;28;20449;-76
2023/12/15 12:38:45;;;;;;;14.13;13.63;;;8.70;1.00;;;;;;5026907;28;20464;-76
2023/12/15 12:41:13;;;;;;;14.20;13.50;;;8.70;1.00;;;;;;5028242;28;20481;-76
2023/12/15 12:43:42;;;;;;;14.60;13.83;;;8.70;1.00;;;;;;5029794;28;20456;-76
2023/12/15 12:46:11;;;;;;;13.47;12.97;;;8.70;1.00;;;;;;5023905;28;20950;-77
2023/12/15 12:48:44;;;;;;;13.63;13.20;;;8.70;1.00;;;;;;5031324;28;20536;-76
2023/12/15 12:51:12;;;;;;;13.90;13.30;;;8.70;1.00;;;;;;5023171;28;20568;-78